sensor_id;sensor_type;location;lat;lon;timestamp;temperature;humidity
10873;DHT22;34586;53.616;10.032;2024-02-14T00:01:04;6.40;99.90
10873;DHT22;34586;53.616;10.032;2024-02-14T00:03:29;6.40;99.90
10873;DHT22;34586;53.616;10.032;2024-02-14T00:05:55;6.40;99.90
10873;DHT22;34586;53.616;10.032;2024-02-14T00:08:22;6.30;99.90
10873;DHT22;34586;53.616;10.032;2024-02-14T00:10:48;6.20;99.90
10873;DHT22;34586;53.616;10.032;2024-02-14T00:13:14;6.20;99.90
10873;DHT22;34586;53.616;10.032;2024-02-14T00:15:40;6.20;99.90
10873;DHT22;34586;53.616;10.032;2024-02-14T00:18:07;6.10;99.90
10873;DHT22;34586;53.616;10.032;2024-02-14T00:20:32;6.10;99.90
10873;DHT22;34586;53.616;10.032;2024-02-14T00:22:58;6.10;99.90
10873;DHT22;34586;53.616;10.032;2024-02-14T00:25:23;6.10;99.90
10873;DHT22;34586;53.616;10.032;2024-02-14T00:27:49;6.10;99.90
10873;DHT22;34586;53.616;10.032;2024-02-14T00:30:15;6.10;99.90
10873;DHT22;34586;53.616;10.032;2024-02-14T00:32:41;6.10;99.90
10873;DHT22;34586;53.616;10.032;2024-02-14T00:35:07;6.10;99.90
10873;DHT22;34586;53.616;10.032;2024-02-14T00:37:33;6.10;99.90
10873;DHT22;34586;53.616;10.032;2024-02-14T00:39:59;6.10;99.90
10873;DHT22;34586;53.616;10.032;2024-02-14T00:42:25;6.10;99.90
10873;DHT22;34586;53.616;10.032;2024-02-14T00:44:50;6.20;99.90
10873;DHT22;34586;53.616;10.032;2024-02-14T00:47:16;6.10;99.90
10873;DHT22;34586;53.616;10.032;2024-02-14T00:49:42;6.10;99.90
10873;DHT22;34586;53.616;10.032;2024-02-14T00:52:08;6.20;99.90
10873;DHT22;34586;53.616;10.032;2024-02-14T00:54:34;6.20;99.90
10873;DHT22;34586;53.616;10.032;2024-02-14T00:57:00;6.20;99.90
10873;DHT22;34586;53.616;10.032;2024-02-14T00:59:26;6.20;99.90
10873;DHT22;34586;53.616;10.032;2024-02-14T01:01:51;6.20;99.90
10873;DHT22;34586;53.616;10.032;2024-02-14T01:04:17;6.30;99.90
10873;DHT22;34586;53.616;10.032;2024-02-14T01:06:43;6.20;99.90
10873;DHT22;34586;53.616;10.032;2024-02-14T01:09:08;6.20;99.90
10873;DHT22;34586;53.616;10.032;2024-02-14T01:11:34;6.30;99.90
10873;DHT22;34586;53.616;10.032;2024-02-14T01:13:59;6.40;99.90
10873;DHT22;34586;53.616;10.032;2024-02-14T01:16:25;6.40;99.90
10873;DHT22;34586;53.616;10.032;2024-02-14T01:18:51;6.40;99.90
10873;DHT22;34586;53.616;10.032;2024-02-14T01:21:17;6.50;99.90
10873;DHT22;34586;53.616;10.032;2024-02-14T01:23:42;6.50;99.90
10873;DHT22;34586;53.616;10.032;2024-02-14T01:26:08;6.50;99.90
10873;DHT22;34586;53.616;10.032;2024-02-14T01:28:33;6.50;99.90
10873;DHT22;34586;53.616;10.032;2024-02-14T01:30:59;6.50;99.90
10873;DHT22;34586;53.616;10.032;2024-02-14T01:33:24;6.50;99.90
10873;DHT22;34586;53.616;10.032;2024-02-14T01:35:50;6.50;99.90
10873;DHT22;34586;53.616;10.032;2024-02-14T01:38:16;6.50;99.90
10873;DHT22;34586;53.616;10.032;2024-02-14T01:40:44;6.50;99.90
10873;DHT22;34586;53.616;10.032;2024-02-14T01:43:11;6.50;99.90
10873;DHT22;34586;53.616;10.032;2024-02-14T01:45:37;6.50;99.90
10873;DHT22;34586;53.616;10.032;2024-02-14T01:48:04;6.50;99.90
10873;DHT22;34586;53.616;10.032;2024-02-14T01:50:31;6.40;99.90
10873;DHT22;34586;53.616;10.032;2024-02-14T01:52:58;6.40;99.90
10873;DHT22;34586;53.616;10.032;2024-02-14T01:55:29;6.40;99.90
10873;DHT22;34586;53.616;10.032;2024-02-14T01:57:55;6.40;99.90
10873;DHT22;34586;53.616;10.032;2024-02-14T02:00:21;6.40;99.90
10873;DHT22;34586;53.616;10.032;2024-02-14T02:02:47;6.30;99.90
10873;DHT22;34586;53.616;10.032;2024-02-14T02:05:13;6.30;99.90
10873;DHT22;34586;53.616;10.032;2024-02-14T02:07:39;6.30;99.90
10873;DHT22;34586;53.616;10.032;2024-02-14T02:10:09;6.30;99.90
10873;DHT22;34586;53.616;10.032;2024-02-14T02:12:36;6.30;99.90
10873;DHT22;34586;53.616;10.032;2024-02-14T02:15:07;6.20;99.90
10873;DHT22;34586;53.616;10.032;2024-02-14T02:17:36;6.20;99.90
10873;DHT22;34586;53.616;10.032;2024-02-14T02:20:02;6.20;99.90
10873;DHT22;34586;53.616;10.032;2024-02-14T02:22:27;6.20;99.90
10873;DHT22;34586;53.616;10.032;2024-02-14T02:24:57;6.10;99.90
10873;DHT22;34586;53.616;10.032;2024-02-14T02:27:23;6.10;99.90
10873;DHT22;34586;53.616;10.032;2024-02-14T02:29:48;6.10;99.90
10873;DHT22;34586;53.616;10.032;2024-02-14T02:32:14;6.10;99.90
10873;DHT22;34586;53.616;10.032;2024-02-14T02:34:40;6.10;99.90
10873;DHT22;34586;53.616;10.032;2024-02-14T02:37:05;6.20;99.90
10873;DHT22;34586;53.616;10.032;2024-02-14T02:39:35;6.10;99.90
10873;DHT22;34586;53.616;10.032;2024-02-14T02:42:02;6.10;99.90
10873;DHT22;34586;53.616;10.032;2024-02-14T02:44:28;6.10;99.90
10873;DHT22;34586;53.616;10.032;2024-02-14T02:46:54;6.10;99.90
10873;DHT22;34586;53.616;10.032;2024-02-14T02:49:21;6.10;99.90
10873;DHT22;34586;53.616;10.032;2024-02-14T02:51:47;6.10;99.90
10873;DHT22;34586;53.616;10.032;2024-02-14T02:54:13;6.10;99.90
10873;DHT22;34586;53.616;10.032;2024-02-14T02:56:39;6.10;99.90
10873;DHT22;34586;53.616;10.032;2024-02-14T02:59:06;6.10;99.90
10873;DHT22;34586;53.616;10.032;2024-02-14T03:01:36;6.10;99.90
10873;DHT22;34586;53.616;10.032;2024-02-14T03:04:02;6.10;99.90
10873;DHT22;34586;53.616;10.032;2024-02-14T03:06:28;6.10;99.90
10873;DHT22;34586;53.616;10.032;2024-02-14T03:08:54;6.00;99.90
10873;DHT22;34586;53.616;10.032;2024-02-14T03:11:22;6.00;99.90
10873;DHT22;34586;53.616;10.032;2024-02-14T03:13:47;6.00;99.90
10873;DHT22;34586;53.616;10.032;2024-02-14T03:16:15;6.00;99.90
10873;DHT22;34586;53.616;10.032;2024-02-14T03:18:43;6.00;99.90
10873;DHT22;34586;53.616;10.032;2024-02-14T03:21:08;5.90;99.90
10873;DHT22;34586;53.616;10.032;2024-02-14T03:23:34;5.90;99.90
10873;DHT22;34586;53.616;10.032;2024-02-14T03:25:59;5.90;99.90
10873;DHT22;34586;53.616;10.032;2024-02-14T03:28:25;5.90;99.90
10873;DHT22;34586;53.616;10.032;2024-02-14T03:30:51;5.90;99.90
10873;DHT22;34586;53.616;10.032;2024-02-14T03:33:17;6.00;99.90
10873;DHT22;34586;53.616;10.032;2024-02-14T03:35:43;5.90;99.90
10873;DHT22;34586;53.616;10.032;2024-02-14T03:38:08;5.90;99.90
10873;DHT22;34586;53.616;10.032;2024-02-14T03:40:36;5.90;99.90
10873;DHT22;34586;53.616;10.032;2024-02-14T03:43:04;6.00;99.90
10873;DHT22;34586;53.616;10.032;2024-02-14T03:45:29;6.00;99.90
10873;DHT22;34586;53.616;10.032;2024-02-14T03:47:56;6.10;99.90
10873;DHT22;34586;53.616;10.032;2024-02-14T03:50:22;6.00;99.90
10873;DHT22;34586;53.616;10.032;2024-02-14T03:52:48;5.90;99.90
10873;DHT22;34586;53.616;10.032;2024-02-14T03:55:14;5.90;99.90
10873;DHT22;34586;53.616;10.032;2024-02-14T03:57:42;6.00;99.90
10873;DHT22;34586;53.616;10.032;2024-02-14T04:00:11;5.90;99.90
10873;DHT22;34586;53.616;10.032;2024-02-14T04:02:36;5.90;99.90
10873;DHT22;34586;53.616;10.032;2024-02-14T04:05:02;5.90;99.90
10873;DHT22;34586;53.616;10.032;2024-02-14T04:07:28;5.90;99.90
10873;DHT22;34586;53.616;10.032;2024-02-14T04:09:55;6.00;99.90
10873;DHT22;34586;53.616;10.032;2024-02-14T04:12:21;6.00;99.90
10873;DHT22;34586;53.616;10.032;2024-02-14T04:14:47;6.00;99.90
10873;DHT22;34586;53.616;10.032;2024-02-14T04:17:14;6.00;99.90
10873;DHT22;34586;53.616;10.032;2024-02-14T04:19:40;6.00;99.90
10873;DHT22;34586;53.616;10.032;2024-02-14T04:22:06;6.00;99.90
10873;DHT22;34586;53.616;10.032;2024-02-14T04:24:35;6.00;99.90
10873;DHT22;34586;53.616;10.032;2024-02-14T04:27:01;5.90;99.90
10873;DHT22;34586;53.616;10.032;2024-02-14T04:29:29;5.90;99.90
10873;DHT22;34586;53.616;10.032;2024-02-14T04:31:56;6.00;99.90
10873;DHT22;34586;53.616;10.032;2024-02-14T04:34:22;6.00;99.90
10873;DHT22;34586;53.616;10.032;2024-02-14T04:36:47;6.00;99.90
10873;DHT22;34586;53.616;10.032;2024-02-14T04:39:13;6.00;99.90
10873;DHT22;34586;53.616;10.032;2024-02-14T04:41:39;6.00;99.90
10873;DHT22;34586;53.616;10.032;2024-02-14T04:44:05;6.00;99.90
10873;DHT22;34586;53.616;10.032;2024-02-14T04:46:34;6.00;99.90
10873;DHT22;34586;53.616;10.032;2024-02-14T04:49:03;6.00;99.90
10873;DHT22;34586;53.616;10.032;2024-02-14T04:51:29;6.00;99.90
10873;DHT22;34586;53.616;10.032;2024-02-14T04:53:55;6.00;99.90
10873;DHT22;34586;53.616;10.032;2024-02-14T04:56:24;6.00;99.90
10873;DHT22;34586;53.616;10.032;2024-02-14T04:58:51;6.00;99.90
10873;DHT22;34586;53.616;10.032;2024-02-14T05:01:16;6.00;99.90
10873;DHT22;34586;53.616;10.032;2024-02-14T05:03:43;6.00;99.90
10873;DHT22;34586;53.616;10.032;2024-02-14T05:06:09;6.00;99.90
10873;DHT22;34586;53.616;10.032;2024-02-14T05:08:35;6.00;99.90
10873;DHT22;34586;53.616;10.032;2024-02-14T05:11:00;6.00;99.90
10873;DHT22;34586;53.616;10.032;2024-02-14T05:13:26;6.00;99.90
10873;DHT22;34586;53.616;10.032;2024-02-14T05:15:52;6.00;99.90
10873;DHT22;34586;53.616;10.032;2024-02-14T05:18:17;6.10;99.90
10873;DHT22;34586;53.616;10.032;2024-02-14T05:20:43;6.10;99.90
10873;DHT22;34586;53.616;10.032;2024-02-14T05:23:09;6.10;99.90
10873;DHT22;34586;53.616;10.032;2024-02-14T05:25:38;6.10;99.90
10873;DHT22;34586;53.616;10.032;2024-02-14T05:28:05;6.10;99.90
10873;DHT22;34586;53.616;10.032;2024-02-14T05:30:31;6.10;99.90
10873;DHT22;34586;53.616;10.032;2024-02-14T05:32:57;6.10;99.90
10873;DHT22;34586;53.616;10.032;2024-02-14T05:35:23;6.20;99.90
10873;DHT22;34586;53.616;10.032;2024-02-14T05:37:49;6.20;99.90
10873;DHT22;34586;53.616;10.032;2024-02-14T05:40:16;6.20;99.90
10873;DHT22;34586;53.616;10.032;2024-02-14T05:42:42;6.20;99.90
10873;DHT22;34586;53.616;10.032;2024-02-14T05:45:09;6.20;99.90
10873;DHT22;34586;53.616;10.032;2024-02-14T05:47:35;6.20;99.90
10873;DHT22;34586;53.616;10.032;2024-02-14T05:50:01;6.20;99.90
10873;DHT22;34586;53.616;10.032;2024-02-14T05:52:26;6.20;99.90
10873;DHT22;34586;53.616;10.032;2024-02-14T05:54:52;6.00;99.90
10873;DHT22;34586;53.616;10.032;2024-02-14T05:57:17;6.20;99.90
10873;DHT22;34586;53.616;10.032;2024-02-14T05:59:43;6.30;99.90
10873;DHT22;34586;53.616;10.032;2024-02-14T06:02:09;6.30;99.90
10873;DHT22;34586;53.616;10.032;2024-02-14T06:04:35;6.30;99.90
10873;DHT22;34586;53.616;10.032;2024-02-14T06:07:01;6.30;99.90
10873;DHT22;34586;53.616;10.032;2024-02-14T06:09:28;6.30;99.90
10873;DHT22;34586;53.616;10.032;2024-02-14T06:11:54;6.30;99.90
10873;DHT22;34586;53.616;10.032;2024-02-14T06:14:20;6.30;99.90
10873;DHT22;34586;53.616;10.032;2024-02-14T06:16:45;6.30;99.90
10873;DHT22;34586;53.616;10.032;2024-02-14T06:19:11;6.40;99.90
10873;DHT22;34586;53.616;10.032;2024-02-14T06:21:37;6.40;99.90
10873;DHT22;34586;53.616;10.032;2024-02-14T06:24:02;6.40;99.90
10873;DHT22;34586;53.616;10.032;2024-02-14T06:26:31;6.40;99.90
10873;DHT22;34586;53.616;10.032;2024-02-14T06:28:58;6.40;99.90
10873;DHT22;34586;53.616;10.032;2024-02-14T06:31:24;6.40;99.90
10873;DHT22;34586;53.616;10.032;2024-02-14T06:33:49;6.50;99.90
10873;DHT22;34586;53.616;10.032;2024-02-14T06:36:15;6.40;99.90
10873;DHT22;34586;53.616;10.032;2024-02-14T06:38:41;6.30;99.90
10873;DHT22;34586;53.616;10.032;2024-02-14T06:41:06;6.40;99.90
10873;DHT22;34586;53.616;10.032;2024-02-14T06:43:32;6.50;99.90
10873;DHT22;34586;53.616;10.032;2024-02-14T06:45:58;6.50;99.90
10873;DHT22;34586;53.616;10.032;2024-02-14T06:48:23;6.50;99.90
10873;DHT22;34586;53.616;10.032;2024-02-14T06:50:50;6.50;99.90
10873;DHT22;34586;53.616;10.032;2024-02-14T06:53:16;6.50;99.90
10873;DHT22;34586;53.616;10.032;2024-02-14T06:55:42;6.50;99.90
10873;DHT22;34586;53.616;10.032;2024-02-14T06:58:07;6.50;99.90
10873;DHT22;34586;53.616;10.032;2024-02-14T07:00:33;6.50;99.90
10873;DHT22;34586;53.616;10.032;2024-02-14T07:02:59;6.60;99.90
10873;DHT22;34586;53.616;10.032;2024-02-14T07:05:25;6.60;99.90
10873;DHT22;34586;53.616;10.032;2024-02-14T07:07:53;6.60;99.90
10873;DHT22;34586;53.616;10.032;2024-02-14T07:10:19;6.70;99.90
10873;DHT22;34586;53.616;10.032;2024-02-14T07:12:44;6.70;99.90
10873;DHT22;34586;53.616;10.032;2024-02-14T07:15:10;6.60;99.90
10873;DHT22;34586;53.616;10.032;2024-02-14T07:17:36;6.60;99.90
10873;DHT22;34586;53.616;10.032;2024-02-14T07:20:04;6.60;99.90
10873;DHT22;34586;53.616;10.032;2024-02-14T07:22:30;6.70;99.90
10873;DHT22;34586;53.616;10.032;2024-02-14T07:24:56;6.70;99.90
10873;DHT22;34586;53.616;10.032;2024-02-14T07:27:21;6.70;99.90
10873;DHT22;34586;53.616;10.032;2024-02-14T07:29:49;6.70;99.90
10873;DHT22;34586;53.616;10.032;2024-02-14T07:32:14;6.70;99.90
10873;DHT22;34586;53.616;10.032;2024-02-14T07:34:40;6.70;99.90
10873;DHT22;34586;53.616;10.032;2024-02-14T07:37:06;6.70;99.90
10873;DHT22;34586;53.616;10.032;2024-02-14T07:39:32;6.70;99.90
10873;DHT22;34586;53.616;10.032;2024-02-14T07:42:03;6.80;99.90
10873;DHT22;34586;53.616;10.032;2024-02-14T07:44:28;6.80;99.90
10873;DHT22;34586;53.616;10.032;2024-02-14T07:46:54;6.80;99.90
10873;DHT22;34586;53.616;10.032;2024-02-14T07:49:20;6.90;99.90
10873;DHT22;34586;53.616;10.032;2024-02-14T07:51:46;7.00;99.90
10873;DHT22;34586;53.616;10.032;2024-02-14T07:54:12;6.90;99.90
10873;DHT22;34586;53.616;10.032;2024-02-14T07:56:37;6.90;99.90
10873;DHT22;34586;53.616;10.032;2024-02-14T07:59:03;6.90;99.90
10873;DHT22;34586;53.616;10.032;2024-02-14T08:01:30;6.90;99.90
10873;DHT22;34586;53.616;10.032;2024-02-14T08:03:56;7.00;99.90
10873;DHT22;34586;53.616;10.032;2024-02-14T08:06:22;7.00;99.90
10873;DHT22;34586;53.616;10.032;2024-02-14T08:08:47;7.00;99.90
10873;DHT22;34586;53.616;10.032;2024-02-14T08:11:17;7.10;99.90
10873;DHT22;34586;53.616;10.032;2024-02-14T08:13:43;7.10;99.90
10873;DHT22;34586;53.616;10.032;2024-02-14T08:16:08;7.30;99.90
10873;DHT22;34586;53.616;10.032;2024-02-14T08:18:34;7.40;99.90
10873;DHT22;34586;53.616;10.032;2024-02-14T08:21:00;7.20;99.90
10873;DHT22;34586;53.616;10.032;2024-02-14T08:23:28;7.30;99.90
10873;DHT22;34586;53.616;10.032;2024-02-14T08:25:54;7.30;99.90
10873;DHT22;34586;53.616;10.032;2024-02-14T08:28:19;7.30;99.90
10873;DHT22;34586;53.616;10.032;2024-02-14T08:30:46;7.30;99.90
10873;DHT22;34586;53.616;10.032;2024-02-14T08:33:13;7.40;99.90
10873;DHT22;34586;53.616;10.032;2024-02-14T08:35:39;7.40;99.90
10873;DHT22;34586;53.616;10.032;2024-02-14T08:38:04;7.50;99.90
10873;DHT22;34586;53.616;10.032;2024-02-14T08:40:30;7.60;99.90
10873;DHT22;34586;53.616;10.032;2024-02-14T08:42:55;7.50;99.90
10873;DHT22;34586;53.616;10.032;2024-02-14T08:45:21;7.50;99.90
10873;DHT22;34586;53.616;10.032;2024-02-14T08:47:46;7.60;99.90
10873;DHT22;34586;53.616;10.032;2024-02-14T08:50:12;7.60;99.90
10873;DHT22;34586;53.616;10.032;2024-02-14T08:52:39;7.50;99.90
10873;DHT22;34586;53.616;10.032;2024-02-14T08:55:05;7.60;99.90
10873;DHT22;34586;53.616;10.032;2024-02-14T08:57:34;7.70;99.90
10873;DHT22;34586;53.616;10.032;2024-02-14T09:00:00;7.70;99.90
10873;DHT22;34586;53.616;10.032;2024-02-14T09:02:28;7.80;99.90
10873;DHT22;34586;53.616;10.032;2024-02-14T09:04:53;7.80;99.90
10873;DHT22;34586;53.616;10.032;2024-02-14T09:07:19;7.80;99.90
10873;DHT22;34586;53.616;10.032;2024-02-14T09:09:44;7.90;99.90
10873;DHT22;34586;53.616;10.032;2024-02-14T09:12:11;7.90;99.90
10873;DHT22;34586;53.616;10.032;2024-02-14T09:14:37;8.00;99.90
10873;DHT22;34586;53.616;10.032;2024-02-14T09:17:02;8.10;99.90
10873;DHT22;34586;53.616;10.032;2024-02-14T09:19:28;8.10;99.90
10873;DHT22;34586;53.616;10.032;2024-02-14T09:21:55;8.30;99.90
10873;DHT22;34586;53.616;10.032;2024-02-14T09:24:21;8.40;99.90
10873;DHT22;34586;53.616;10.032;2024-02-14T09:26:46;8.20;99.90
10873;DHT22;34586;53.616;10.032;2024-02-14T09:29:12;8.40;99.90
10873;DHT22;34586;53.616;10.032;2024-02-14T09:31:37;8.30;99.90
10873;DHT22;34586;53.616;10.032;2024-02-14T09:34:03;8.40;99.90
10873;DHT22;34586;53.616;10.032;2024-02-14T09:36:29;8.40;99.90
10873;DHT22;34586;53.616;10.032;2024-02-14T09:38:54;8.40;99.90
10873;DHT22;34586;53.616;10.032;2024-02-14T09:41:26;8.40;99.90
10873;DHT22;34586;53.616;10.032;2024-02-14T09:43:52;8.50;99.90
10873;DHT22;34586;53.616;10.032;2024-02-14T09:46:18;8.50;99.90
10873;DHT22;34586;53.616;10.032;2024-02-14T09:48:45;8.60;99.90
10873;DHT22;34586;53.616;10.032;2024-02-14T09:51:11;8.60;99.90
10873;DHT22;34586;53.616;10.032;2024-02-14T09:53:38;8.60;99.90
10873;DHT22;34586;53.616;10.032;2024-02-14T09:56:05;8.70;99.90
10873;DHT22;34586;53.616;10.032;2024-02-14T09:58:32;8.80;99.90
10873;DHT22;34586;53.616;10.032;2024-02-14T10:01:01;8.90;99.90
10873;DHT22;34586;53.616;10.032;2024-02-14T10:10:11;9.00;99.90
10873;DHT22;34586;53.616;10.032;2024-02-14T10:12:37;9.00;99.90
10873;DHT22;34586;53.616;10.032;2024-02-14T10:15:04;9.00;99.90
10873;DHT22;34586;53.616;10.032;2024-02-14T10:17:30;9.00;99.90
10873;DHT22;34586;53.616;10.032;2024-02-14T10:19:59;9.00;99.90
10873;DHT22;34586;53.616;10.032;2024-02-14T10:22:32;9.00;99.90
10873;DHT22;34586;53.616;10.032;2024-02-14T10:24:59;9.10;99.90
10873;DHT22;34586;53.616;10.032;2024-02-14T10:27:25;9.20;99.90
10873;DHT22;34586;53.616;10.032;2024-02-14T10:29:51;9.20;99.90
10873;DHT22;34586;53.616;10.032;2024-02-14T10:32:16;9.30;99.90
10873;DHT22;34586;53.616;10.032;2024-02-14T10:34:43;9.40;99.90
10873;DHT22;34586;53.616;10.032;2024-02-14T10:37:13;9.50;99.90
10873;DHT22;34586;53.616;10.032;2024-02-14T10:39:41;9.60;99.90
10873;DHT22;34586;53.616;10.032;2024-02-14T10:42:07;9.70;99.90
10873;DHT22;34586;53.616;10.032;2024-02-14T10:44:32;9.70;99.90
10873;DHT22;34586;53.616;10.032;2024-02-14T10:47:00;9.70;99.90
10873;DHT22;34586;53.616;10.032;2024-02-14T10:49:29;9.80;99.90
10873;DHT22;34586;53.616;10.032;2024-02-14T10:51:56;9.90;99.90
10873;DHT22;34586;53.616;10.032;2024-02-14T10:54:25;10.00;99.90
10873;DHT22;34586;53.616;10.032;2024-02-14T10:56:53;10.10;99.90
10873;DHT22;34586;53.616;10.032;2024-02-14T10:59:21;10.20;99.90
10873;DHT22;34586;53.616;10.032;2024-02-14T11:01:48;10.20;99.90
10873;DHT22;34586;53.616;10.032;2024-02-14T11:04:15;10.20;99.90
10873;DHT22;34586;53.616;10.032;2024-02-14T11:06:48;10.10;99.90
10873;DHT22;34586;53.616;10.032;2024-02-14T11:09:14;10.10;99.90
10873;DHT22;34586;53.616;10.032;2024-02-14T11:11:44;10.10;99.90
10873;DHT22;34586;53.616;10.032;2024-02-14T11:14:10;10.10;99.90
10873;DHT22;34586;53.616;10.032;2024-02-14T11:16:40;10.20;99.90
10873;DHT22;34586;53.616;10.032;2024-02-14T11:19:13;10.20;99.90
10873;DHT22;34586;53.616;10.032;2024-02-14T11:21:44;10.20;99.90
10873;DHT22;34586;53.616;10.032;2024-02-14T11:24:12;10.20;99.90
10873;DHT22;34586;53.616;10.032;2024-02-14T11:29:17;10.20;99.90
10873;DHT22;34586;53.616;10.032;2024-02-14T11:31:46;10.20;99.90
10873;DHT22;34586;53.616;10.032;2024-02-14T11:34:13;10.20;99.90
10873;DHT22;34586;53.616;10.032;2024-02-14T11:36:43;10.20;99.90
10873;DHT22;34586;53.616;10.032;2024-02-14T11:39:12;10.30;99.90
10873;DHT22;34586;53.616;10.032;2024-02-14T11:41:39;10.30;99.90
10873;DHT22;34586;53.616;10.032;2024-02-14T11:44:07;10.20;99.90
10873;DHT22;34586;53.616;10.032;2024-02-14T11:46:34;10.20;99.90
10873;DHT22;34586;53.616;10.032;2024-02-14T11:49:01;10.30;99.90
10873;DHT22;34586;53.616;10.032;2024-02-14T11:51:32;10.40;99.90
10873;DHT22;34586;53.616;10.032;2024-02-14T11:53:59;10.50;99.90
10873;DHT22;34586;53.616;10.032;2024-02-14T11:59:02;10.60;99.90
10873;DHT22;34586;53.616;10.032;2024-02-14T12:01:33;10.70;99.90
10873;DHT22;34586;53.616;10.032;2024-02-14T12:04:00;10.70;99.90
10873;DHT22;34586;53.616;10.032;2024-02-14T12:06:35;10.80;99.90
10873;DHT22;34586;53.616;10.032;2024-02-14T12:09:03;10.80;99.90
10873;DHT22;34586;53.616;10.032;2024-02-14T12:11:36;10.70;99.90
10873;DHT22;34586;53.616;10.032;2024-02-14T12:14:08;10.70;99.90
10873;DHT22;34586;53.616;10.032;2024-02-14T12:16:35;10.70;99.90
10873;DHT22;34586;53.616;10.032;2024-02-14T12:19:06;10.80;99.90
10873;DHT22;34586;53.616;10.032;2024-02-14T12:21:39;10.80;99.90
10873;DHT22;34586;53.616;10.032;2024-02-14T12:24:08;10.80;99.90
10873;DHT22;34586;53.616;10.032;2024-02-14T12:26:35;10.80;99.90
10873;DHT22;34586;53.616;10.032;2024-02-14T12:29:05;10.90;99.90
10873;DHT22;34586;53.616;10.032;2024-02-14T12:31:32;10.80;99.90
10873;DHT22;34586;53.616;10.032;2024-02-14T12:33:59;10.90;99.90
10873;DHT22;34586;53.616;10.032;2024-02-14T12:36:27;10.90;99.90
10873;DHT22;34586;53.616;10.032;2024-02-14T12:38:54;10.90;99.90
10873;DHT22;34586;53.616;10.032;2024-02-14T12:41:20;10.90;99.90
10873;DHT22;34586;53.616;10.032;2024-02-14T12:43:47;10.90;99.90
10873;DHT22;34586;53.616;10.032;2024-02-14T12:46:13;10.90;99.90
10873;DHT22;34586;53.616;10.032;2024-02-14T12:48:39;10.90;99.90
10873;DHT22;34586;53.616;10.032;2024-02-14T12:51:05;11.00;99.90
10873;DHT22;34586;53.616;10.032;2024-02-14T12:53:30;11.00;99.90
10873;DHT22;34586;53.616;10.032;2024-02-14T12:55:56;11.10;99.90
10873;DHT22;34586;53.616;10.032;2024-02-14T12:58:22;11.10;99.90
10873;DHT22;34586;53.616;10.032;2024-02-14T13:00:47;11.20;99.90
10873;DHT22;34586;53.616;10.032;2024-02-14T13:03:13;11.20;99.90
10873;DHT22;34586;53.616;10.032;2024-02-14T13:05:39;11.20;99.90
10873;DHT22;34586;53.616;10.032;2024-02-14T13:08:05;11.30;99.90
10873;DHT22;34586;53.616;10.032;2024-02-14T13:10:31;11.30;99.90
10873;DHT22;34586;53.616;10.032;2024-02-14T13:12:57;11.30;99.90
10873;DHT22;34586;53.616;10.032;2024-02-14T13:15:23;11.30;99.90
10873;DHT22;34586;53.616;10.032;2024-02-14T13:17:48;11.20;99.90
10873;DHT22;34586;53.616;10.032;2024-02-14T13:20:14;11.20;99.90
10873;DHT22;34586;53.616;10.032;2024-02-14T13:22:41;11.20;99.90
10873;DHT22;34586;53.616;10.032;2024-02-14T13:25:08;11.20;99.90
10873;DHT22;34586;53.616;10.032;2024-02-14T13:27:34;11.10;99.90
10873;DHT22;34586;53.616;10.032;2024-02-14T13:30:03;11.10;99.90
10873;DHT22;34586;53.616;10.032;2024-02-14T13:32:29;11.00;99.90
10873;DHT22;34586;53.616;10.032;2024-02-14T13:34:55;11.10;99.90
10873;DHT22;34586;53.616;10.032;2024-02-14T13:37:21;11.10;99.90
10873;DHT22;34586;53.616;10.032;2024-02-14T13:39:47;11.10;99.90
10873;DHT22;34586;53.616;10.032;2024-02-14T13:42:13;11.30;99.90
10873;DHT22;34586;53.616;10.032;2024-02-14T13:44:38;11.30;99.90
10873;DHT22;34586;53.616;10.032;2024-02-14T13:47:04;11.20;99.90
10873;DHT22;34586;53.616;10.032;2024-02-14T13:49:30;11.30;99.90
10873;DHT22;34586;53.616;10.032;2024-02-14T13:51:55;11.30;99.90
10873;DHT22;34586;53.616;10.032;2024-02-14T13:54:21;11.40;99.90
10873;DHT22;34586;53.616;10.032;2024-02-14T13:56:50;11.30;99.90
10873;DHT22;34586;53.616;10.032;2024-02-14T13:59:16;11.30;99.90
10873;DHT22;34586;53.616;10.032;2024-02-14T14:01:42;11.30;99.90
10873;DHT22;34586;53.616;10.032;2024-02-14T14:04:08;11.20;99.90
10873;DHT22;34586;53.616;10.032;2024-02-14T14:06:33;11.20;99.90
10873;DHT22;34586;53.616;10.032;2024-02-14T14:09:00;11.20;99.90
10873;DHT22;34586;53.616;10.032;2024-02-14T14:11:26;11.20;99.90
10873;DHT22;34586;53.616;10.032;2024-02-14T14:13:51;11.20;99.90
10873;DHT22;34586;53.616;10.032;2024-02-14T14:16:17;11.30;99.90
10873;DHT22;34586;53.616;10.032;2024-02-14T14:18:43;11.30;99.90
10873;DHT22;34586;53.616;10.032;2024-02-14T14:21:08;11.40;99.90
10873;DHT22;34586;53.616;10.032;2024-02-14T14:23:34;11.30;99.90
10873;DHT22;34586;53.616;10.032;2024-02-14T14:26:00;11.30;99.90
10873;DHT22;34586;53.616;10.032;2024-02-14T14:28:26;11.20;99.90
10873;DHT22;34586;53.616;10.032;2024-02-14T14:30:52;11.30;99.90
10873;DHT22;34586;53.616;10.032;2024-02-14T14:33:21;11.20;99.90
10873;DHT22;34586;53.616;10.032;2024-02-14T14:35:47;11.30;99.90
10873;DHT22;34586;53.616;10.032;2024-02-14T14:38:18;11.20;99.90
10873;DHT22;34586;53.616;10.032;2024-02-14T14:40:44;11.20;99.90
10873;DHT22;34586;53.616;10.032;2024-02-14T14:43:14;11.20;99.90
10873;DHT22;34586;53.616;10.032;2024-02-14T14:45:40;11.20;99.90
10873;DHT22;34586;53.616;10.032;2024-02-14T14:48:07;11.10;99.90
10873;DHT22;34586;53.616;10.032;2024-02-14T14:50:34;11.10;99.90
10873;DHT22;34586;53.616;10.032;2024-02-14T14:53:00;11.10;99.90
10873;DHT22;34586;53.616;10.032;2024-02-14T14:55:50;11.10;99.90
10873;DHT22;34586;53.616;10.032;2024-02-14T14:58:15;11.10;99.90
10873;DHT22;34586;53.616;10.032;2024-02-14T15:00:42;11.10;99.90
10873;DHT22;34586;53.616;10.032;2024-02-14T15:03:08;11.10;99.90
10873;DHT22;34586;53.616;10.032;2024-02-14T15:05:34;11.00;99.90
10873;DHT22;34586;53.616;10.032;2024-02-14T15:08:01;11.10;99.90
10873;DHT22;34586;53.616;10.032;2024-02-14T15:10:27;11.00;99.90
10873;DHT22;34586;53.616;10.032;2024-02-14T15:12:53;11.00;99.90
10873;DHT22;34586;53.616;10.032;2024-02-14T15:15:19;11.00;99.90
10873;DHT22;34586;53.616;10.032;2024-02-14T15:17:47;11.00;99.90
10873;DHT22;34586;53.616;10.032;2024-02-14T15:20:13;11.00;99.90
10873;DHT22;34586;53.616;10.032;2024-02-14T15:22:39;11.00;99.90
10873;DHT22;34586;53.616;10.032;2024-02-14T15:25:05;11.00;99.90
10873;DHT22;34586;53.616;10.032;2024-02-14T15:27:31;11.00;99.90
10873;DHT22;34586;53.616;10.032;2024-02-14T15:29:58;11.00;99.90
10873;DHT22;34586;53.616;10.032;2024-02-14T15:32:42;11.00;99.90
10873;DHT22;34586;53.616;10.032;2024-02-14T15:35:26;11.00;99.90